createdAt,value
2022-07-25T00:00:27.438Z,54.50
2022-07-25T00:02:54.373Z,54.00
2022-07-25T00:05:21.660Z,54.50
2022-07-25T00:07:49.297Z,54.90
2022-07-25T00:10:16.867Z,55.20
2022-07-25T00:12:44.045Z,55.10
2022-07-25T00:15:11.755Z,54.70
2022-07-25T00:17:40.442Z,55.10
2022-07-25T00:20:08.931Z,55.00
2022-07-25T00:22:35.960Z,54.10
2022-07-25T00:25:03.039Z,54.00
2022-07-25T00:27:30.083Z,53.80
2022-07-25T00:29:57.031Z,54.20
2022-07-25T00:32:23.982Z,54.30
2022-07-25T00:34:50.914Z,54.60
2022-07-25T00:37:17.810Z,54.50
2022-07-25T00:39:44.786Z,55.20
2022-07-25T00:42:11.688Z,55.00
2022-07-25T00:44:38.684Z,54.70
2022-07-25T00:47:05.833Z,55.80
2022-07-25T00:49:32.875Z,55.90
2022-07-25T00:52:00.384Z,55.60
2022-07-25T00:54:27.326Z,56.60
2022-07-25T00:56:54.335Z,57.00
2022-07-25T00:59:21.232Z,56.80
2022-07-25T01:01:48.623Z,55.50
2022-07-25T01:04:16.898Z,56.00
2022-07-25T01:06:44.529Z,55.50
2022-07-25T01:09:11.633Z,56.30
2022-07-25T01:11:39.161Z,56.40
2022-07-25T01:14:07.174Z,56.50
2022-07-25T01:16:34.567Z,56.10
2022-07-25T01:19:01.693Z,55.70
2022-07-25T01:21:28.970Z,55.40
2022-07-25T01:23:55.926Z,56.30
2022-07-25T01:26:22.834Z,56.60
2022-07-25T01:28:49.823Z,56.30
2022-07-25T01:31:17.755Z,56.80
2022-07-25T01:33:44.806Z,56.00
2022-07-25T01:36:12.030Z,57.20
2022-07-25T01:38:38.932Z,57.60
2022-07-25T01:41:06.297Z,57.40
2022-07-25T01:43:33.509Z,57.80
2022-07-25T01:46:00.670Z,57.70
2022-07-25T01:48:27.768Z,58.30
2022-07-25T01:50:54.775Z,58.80
2022-07-25T01:53:21.937Z,59.00
2022-07-25T01:55:48.975Z,59.20
2022-07-25T01:58:15.935Z,59.20
2022-07-25T02:00:44.580Z,59.40
2022-07-25T02:03:29.868Z,59.30
2022-07-25T02:06:06.460Z,59.20
2022-07-25T02:08:33.783Z,59.30
2022-07-25T02:11:01.136Z,60.30
2022-07-25T02:13:28.351Z,59.60
2022-07-25T02:15:55.539Z,59.70
2022-07-25T02:18:22.520Z,59.40
2022-07-25T02:20:49.478Z,60.10
2022-07-25T02:23:16.380Z,59.70
2022-07-25T02:25:43.480Z,59.50
2022-07-25T02:28:10.658Z,59.80
2022-07-25T02:30:38.254Z,60.10
2022-07-25T02:33:05.465Z,60.40
2022-07-25T02:35:32.358Z,61.00
2022-07-25T02:37:59.312Z,61.00
2022-07-25T02:40:26.437Z,61.30
2022-07-25T02:42:53.385Z,62.00
2022-07-25T02:45:20.448Z,62.40
2022-07-25T02:47:47.402Z,61.70
2022-07-25T02:50:15.009Z,62.60
2022-07-25T02:52:42.977Z,62.00
2022-07-25T02:55:11.441Z,62.00
2022-07-25T02:57:38.433Z,62.30
2022-07-25T03:00:07.312Z,62.60
2022-07-25T03:02:35.970Z,63.10
2022-07-25T03:05:06.694Z,63.00
2022-07-25T03:07:33.730Z,63.50
2022-07-25T03:10:00.815Z,64.30
2022-07-25T03:12:27.777Z,64.20
2022-07-25T03:14:54.697Z,65.00
2022-07-25T03:17:21.591Z,66.00
2022-07-25T03:19:48.515Z,66.30
2022-07-25T03:22:15.422Z,66.80
2022-07-25T03:24:42.338Z,67.60
2022-07-25T03:27:09.656Z,66.90
2022-07-25T03:29:36.652Z,66.90
2022-07-25T03:32:04.363Z,66.90
2022-07-25T03:34:31.402Z,66.50
2022-07-25T03:36:58.339Z,67.10
2022-07-25T03:39:25.248Z,67.70
2022-07-25T03:41:52.980Z,67.60
2022-07-25T03:44:20.689Z,67.70
2022-07-25T03:46:47.707Z,67.20
2022-07-25T03:49:14.996Z,67.50
2022-07-25T03:51:42.520Z,68.30
2022-07-25T03:54:13.611Z,68.00
2022-07-25T03:56:43.849Z,68.00
2022-07-25T03:59:14.702Z,67.80
2022-07-25T04:01:43.303Z,67.30
2022-07-25T04:04:11.011Z,67.90
2022-07-25T04:06:39.736Z,67.10
2022-07-25T04:09:09.202Z,68.60
2022-07-25T04:11:38.187Z,69.20
2022-07-25T04:14:06.136Z,69.00
2022-07-25T04:16:33.389Z,69.10
2022-07-25T04:19:01.652Z,70.00
2022-07-25T04:21:28.753Z,69.60
2022-07-25T04:23:55.751Z,68.80
2022-07-25T04:26:22.633Z,68.60
2022-07-25T04:28:49.669Z,69.00
2022-07-25T04:31:16.952Z,69.10
2022-07-25T04:33:44.158Z,69.90
2022-07-25T04:36:11.092Z,70.50
2022-07-25T04:38:37.967Z,70.70
2022-07-25T04:41:05.359Z,70.80
2022-07-25T04:43:32.351Z,71.10
2022-07-25T04:45:59.740Z,70.60
2022-07-25T04:48:27.121Z,69.90
2022-07-25T04:50:54.272Z,69.70
2022-07-25T04:53:21.234Z,69.70
2022-07-25T04:55:48.447Z,70.10
2022-07-25T04:58:15.606Z,70.50
2022-07-25T05:00:42.749Z,70.00
2022-07-25T05:03:09.771Z,70.40
2022-07-25T05:05:36.906Z,70.50
2022-07-25T05:08:04.257Z,70.60
2022-07-25T05:10:31.324Z,71.10
2022-07-25T05:12:58.369Z,71.50
2022-07-25T05:15:25.445Z,71.80
2022-07-25T05:17:52.700Z,72.20
2022-07-25T05:20:19.710Z,72.40
2022-07-25T05:22:47.082Z,73.90
2022-07-25T05:25:14.131Z,72.00
2022-07-25T05:27:41.685Z,72.00
2022-07-25T05:30:11.972Z,72.20
2022-07-25T05:32:39.783Z,71.80
2022-07-25T05:35:09.062Z,71.10
2022-07-25T05:37:37.315Z,70.40
2022-07-25T05:40:07.405Z,71.00
2022-07-25T05:42:34.897Z,71.50
2022-07-25T05:45:02.176Z,71.70
2022-07-25T05:47:29.180Z,71.50
2022-07-25T05:49:56.268Z,71.10
2022-07-25T05:52:23.313Z,71.50
2022-07-25T05:54:50.592Z,71.50
2022-07-25T05:57:17.580Z,71.60
2022-07-25T05:59:44.649Z,70.90
2022-07-25T06:02:11.729Z,69.70
2022-07-25T06:04:38.740Z,70.10
2022-07-25T06:07:05.708Z,70.60
2022-07-25T06:09:33.072Z,70.00
2022-07-25T06:12:01.382Z,70.40
2022-07-25T06:14:29.787Z,70.40
2022-07-25T06:16:57.391Z,70.20
2022-07-25T06:19:24.540Z,70.30
2022-07-25T06:21:51.549Z,69.80
2022-07-25T06:24:18.625Z,68.40
2022-07-25T06:26:45.633Z,68.00
2022-07-25T06:29:12.657Z,68.30
2022-07-25T06:31:39.847Z,67.50
2022-07-25T06:34:07.453Z,68.20
2022-07-25T06:36:35.126Z,67.70
2022-07-25T06:39:02.649Z,67.90
2022-07-25T06:41:29.649Z,67.50
2022-07-25T06:43:56.547Z,67.30
2022-07-25T06:46:23.609Z,67.90
2022-07-25T06:48:50.827Z,68.00
2022-07-25T06:51:17.894Z,67.90
2022-07-25T06:53:44.859Z,68.30
2022-07-25T06:56:17.505Z,67.50
2022-07-25T06:58:45.638Z,66.00
2022-07-25T07:01:12.899Z,65.70
2022-07-25T07:03:40.732Z,65.80
2022-07-25T07:06:09.529Z,64.60
2022-07-25T07:08:36.558Z,63.90
2022-07-25T07:11:04.228Z,63.70
2022-07-25T07:13:31.308Z,63.50
2022-07-25T07:15:58.465Z,62.40
2022-07-25T07:18:25.932Z,62.00
2022-07-25T07:20:53.605Z,63.70
2022-07-25T07:23:20.700Z,63.60
2022-07-25T07:25:47.823Z,63.60
2022-07-25T07:28:15.780Z,63.60
2022-07-25T07:33:30.719Z,62.60
2022-07-25T07:35:57.831Z,61.50
2022-07-25T07:38:25.852Z,63.10
2022-07-25T07:40:53.758Z,62.20
2022-07-25T07:43:21.300Z,62.90
2022-07-25T07:45:49.303Z,62.70
2022-07-25T07:48:16.215Z,62.00
2022-07-25T07:50:43.169Z,63.50
2022-07-25T07:53:10.163Z,62.60
2022-07-25T07:55:48.181Z,62.80
2022-07-25T07:58:18.855Z,63.20
2022-07-25T08:00:49.398Z,63.40
2022-07-25T08:03:21.206Z,64.80
2022-07-25T08:05:49.261Z,64.20
2022-07-25T08:08:16.677Z,64.30
2022-07-25T08:10:48.753Z,65.50
2022-07-25T08:13:30.886Z,64.10
2022-07-25T08:16:00.908Z,63.70
2022-07-25T08:18:30.089Z,62.90
2022-07-25T08:20:57.888Z,63.00
2022-07-25T08:23:28.036Z,63.90
2022-07-25T08:25:55.253Z,63.80
2022-07-25T08:28:22.263Z,63.30
2022-07-25T08:30:49.321Z,63.00
2022-07-25T08:33:16.540Z,63.60
2022-07-25T08:35:54.951Z,62.60
2022-07-25T08:38:25.077Z,62.20
2022-07-25T08:40:54.517Z,61.30
2022-07-25T08:43:21.526Z,61.60
2022-07-25T08:45:52.397Z,61.30
2022-07-25T08:48:25.505Z,61.60
2022-07-25T08:50:54.478Z,62.30
2022-07-25T08:53:37.911Z,62.80
2022-07-25T08:56:16.025Z,61.60
2022-07-25T08:58:44.837Z,61.60
2022-07-25T09:01:13.384Z,61.00
2022-07-25T09:03:42.514Z,60.40
2022-07-25T09:06:21.616Z,60.20
2022-07-25T09:08:58.201Z,59.30
2022-07-25T09:11:38.176Z,59.40
2022-07-25T09:14:10.341Z,57.60
2022-07-25T09:16:44.463Z,57.50
2022-07-25T09:19:18.554Z,56.60
2022-07-25T09:22:02.877Z,55.20
2022-07-25T09:24:32.599Z,55.70
2022-07-25T09:27:08.566Z,53.90
2022-07-25T09:29:38.275Z,52.40
2022-07-25T09:32:20.903Z,52.30
2022-07-25T09:34:50.090Z,52.60
2022-07-25T09:37:24.397Z,52.60
2022-07-25T09:39:52.200Z,52.70
2022-07-25T09:42:36.388Z,53.60
2022-07-25T09:45:06.338Z,51.50
2022-07-25T09:47:36.827Z,52.20
2022-07-25T09:50:06.196Z,50.60
2022-07-25T09:52:36.114Z,51.20
2022-07-25T09:55:06.614Z,51.50
2022-07-25T09:57:33.849Z,52.20
2022-07-25T10:00:01.760Z,50.80
2022-07-25T10:03:06.617Z,51.10
2022-07-25T10:06:14.158Z,50.50
2022-07-25T10:08:41.940Z,50.30
2022-07-25T10:11:24.500Z,51.20
2022-07-25T10:13:53.236Z,50.20
2022-07-25T10:16:24.128Z,50.90
2022-07-25T10:18:56.824Z,50.90
2022-07-25T10:21:27.627Z,48.50
2022-07-25T10:24:08.849Z,49.40
2022-07-25T10:26:40.086Z,49.60
2022-07-25T10:29:12.795Z,49.00
2022-07-25T10:31:51.037Z,49.00
2022-07-25T10:34:30.960Z,47.70
2022-07-25T10:37:10.352Z,46.10
2022-07-25T10:39:44.753Z,44.80
2022-07-25T10:42:17.798Z,44.50
2022-07-25T10:44:48.791Z,44.70
2022-07-25T10:47:17.419Z,46.00
2022-07-25T10:50:15.116Z,46.50
2022-07-25T10:52:46.122Z,45.60
2022-07-25T10:55:23.879Z,46.00
2022-07-25T10:58:17.204Z,44.20
2022-07-25T11:00:45.193Z,42.60
2022-07-25T11:03:17.917Z,42.70
2022-07-25T11:05:49.569Z,42.30
2022-07-25T11:08:22.067Z,41.10
2022-07-25T11:10:53.504Z,41.20
2022-07-25T11:13:20.805Z,39.70
2022-07-25T11:15:48.217Z,39.50
2022-07-25T11:18:15.381Z,38.30
2022-07-25T11:20:42.444Z,39.30
2022-07-25T11:23:09.455Z,39.20
2022-07-25T11:25:36.630Z,38.10
2022-07-25T11:28:03.957Z,37.50
2022-07-25T11:30:31.157Z,37.10
2022-07-25T11:33:01.672Z,36.70
2022-07-25T11:35:33.461Z,37.60
2022-07-25T11:38:02.562Z,34.90
2022-07-25T11:40:31.457Z,37.60
2022-07-25T11:42:59.755Z,35.20
2022-07-25T11:45:29.672Z,34.90
2022-07-25T11:48:13.752Z,35.10
2022-07-25T11:50:44.136Z,33.50
2022-07-25T11:53:14.757Z,32.70
2022-07-25T11:55:43.240Z,33.00
2022-07-25T11:58:13.054Z,32.00
2022-07-25T12:00:44.358Z,32.90
2022-07-25T12:03:19.895Z,32.40
2022-07-25T12:05:49.345Z,31.40
2022-07-25T12:08:22.958Z,32.90
2022-07-25T12:10:51.675Z,33.10
2022-07-25T12:13:30.381Z,30.80
2022-07-25T12:16:00.443Z,31.60
2022-07-25T12:18:28.106Z,30.00
2022-07-25T12:20:55.308Z,29.00
2022-07-25T12:23:22.390Z,29.40
2022-07-25T12:25:50.151Z,29.20
2022-07-25T12:28:17.352Z,29.10
2022-07-25T12:30:46.633Z,28.90
2022-07-25T12:33:14.103Z,29.60
2022-07-25T12:35:42.609Z,28.60
2022-07-25T12:38:11.234Z,28.40
2022-07-25T12:40:38.464Z,29.40
2022-07-25T12:43:05.641Z,28.30
2022-07-25T12:45:32.703Z,29.00
2022-07-25T12:48:00.031Z,29.00
2022-07-25T12:50:27.078Z,27.30
2022-07-25T12:52:54.232Z,27.70
2022-07-25T12:55:21.785Z,27.80
2022-07-25T12:57:50.069Z,29.00
2022-07-25T13:00:21.497Z,29.00
2022-07-25T13:02:51.975Z,29.10
2022-07-25T13:05:20.317Z,30.90
2022-07-25T13:07:49.208Z,31.20
2022-07-25T13:10:17.916Z,31.50
2022-07-25T13:12:45.639Z,30.80
2022-07-25T13:15:12.620Z,31.10
2022-07-25T13:17:40.487Z,29.90
2022-07-25T13:20:09.300Z,30.80
2022-07-25T13:22:36.445Z,30.50
2022-07-25T13:25:04.290Z,29.80
2022-07-25T13:27:31.211Z,29.30
2022-07-25T13:29:58.310Z,30.60
2022-07-25T13:32:26.719Z,29.90
2022-07-25T13:34:53.874Z,29.50
2022-07-25T13:37:20.831Z,31.60
2022-07-25T13:39:47.884Z,33.30
2022-07-25T13:42:14.899Z,31.70
2022-07-25T13:44:41.878Z,32.00
2022-07-25T13:47:08.939Z,32.10
2022-07-25T13:49:37.036Z,31.00
2022-07-25T13:52:04.542Z,30.90
2022-07-25T13:54:31.805Z,31.70
2022-07-25T13:56:59.375Z,32.20
2022-07-25T13:59:26.287Z,32.10
2022-07-25T14:01:53.301Z,30.70
2022-07-25T14:04:20.435Z,32.20
2022-07-25T14:06:51.916Z,31.90
2022-07-25T14:09:21.063Z,31.90
2022-07-25T14:11:48.998Z,33.40
2022-07-25T14:14:16.217Z,32.50
2022-07-25T14:16:43.532Z,30.40
2022-07-25T14:19:10.855Z,30.00
2022-07-25T14:21:38.075Z,29.50
2022-07-25T14:24:05.421Z,29.70
2022-07-25T14:26:34.912Z,29.70
2022-07-25T14:29:02.371Z,29.10
2022-07-25T14:31:29.542Z,29.70
2022-07-25T14:33:56.523Z,28.60
2022-07-25T14:36:23.660Z,29.50
2022-07-25T14:38:50.659Z,29.70
2022-07-25T14:41:17.675Z,28.40
2022-07-25T14:43:44.755Z,29.80
2022-07-25T14:46:11.764Z,30.10
2022-07-25T14:48:39.629Z,28.90
2022-07-25T14:51:07.553Z,28.40
2022-07-25T14:53:36.140Z,28.60
2022-07-25T14:56:05.814Z,30.40
2022-07-25T14:58:34.065Z,27.50
2022-07-25T15:01:01.471Z,26.70
2022-07-25T15:03:28.555Z,27.10
2022-07-25T15:05:55.857Z,27.70
2022-07-25T15:08:23.307Z,30.00
2022-07-25T15:10:50.434Z,26.80
2022-07-25T15:13:33.199Z,26.50
2022-07-25T15:16:01.437Z,27.10
2022-07-25T15:18:29.365Z,25.60
2022-07-25T15:20:56.642Z,25.60
2022-07-25T15:23:25.078Z,24.80
2022-07-25T15:26:03.170Z,24.90
2022-07-25T15:28:36.887Z,25.80
2022-07-25T15:31:06.216Z,27.10
2022-07-25T15:33:33.872Z,29.20
2022-07-25T15:36:01.295Z,25.60
2022-07-25T15:38:31.845Z,26.20
2022-07-25T15:40:59.048Z,25.50
2022-07-25T15:43:26.327Z,24.70
2022-07-25T15:45:53.303Z,24.40
2022-07-25T15:48:20.493Z,25.20
2022-07-25T15:50:51.692Z,24.80
2022-07-25T15:53:18.962Z,24.40
2022-07-25T15:55:45.944Z,24.70
2022-07-25T15:58:13.184Z,24.60
2022-07-25T16:00:41.282Z,24.40
2022-07-25T16:03:09.166Z,24.20
2022-07-25T16:05:38.221Z,24.60
2022-07-25T16:08:08.165Z,24.20
2022-07-25T16:10:35.955Z,24.40
2022-07-25T16:13:03.453Z,24.20
2022-07-25T16:15:30.500Z,24.20
2022-07-25T16:18:02.355Z,24.00
2022-07-25T16:20:32.228Z,25.90
2022-07-25T16:23:00.393Z,24.30
2022-07-25T16:25:28.561Z,24.30
2022-07-25T16:27:56.674Z,24.40
2022-07-25T16:30:25.097Z,24.00
2022-07-25T16:32:52.218Z,24.50
2022-07-25T16:35:19.806Z,24.10
2022-07-25T16:37:46.904Z,24.20
2022-07-25T16:40:14.407Z,24.60
2022-07-25T16:42:41.600Z,24.40
2022-07-25T16:45:10.158Z,24.50
2022-07-25T16:47:39.522Z,25.10
2022-07-25T16:50:06.858Z,24.20
2022-07-25T16:52:33.751Z,24.60
2022-07-25T16:55:00.682Z,25.00
2022-07-25T16:57:27.661Z,25.40
2022-07-25T16:59:54.645Z,25.70
2022-07-25T17:02:27.527Z,26.30
2022-07-25T17:04:56.398Z,26.10
2022-07-25T17:07:23.854Z,25.60
2022-07-25T17:09:51.011Z,25.90
2022-07-25T17:12:18.913Z,26.60
2022-07-25T17:14:46.382Z,27.50
2022-07-25T17:17:13.751Z,28.30
2022-07-25T17:19:41.000Z,28.10
2022-07-25T17:22:11.725Z,28.60
2022-07-25T17:24:39.666Z,29.60
2022-07-25T17:27:08.255Z,29.20
2022-07-25T17:29:36.005Z,30.00
2022-07-25T17:32:05.886Z,30.00
2022-07-25T17:34:32.997Z,29.50
2022-07-25T17:37:02.848Z,30.80
2022-07-25T17:39:34.261Z,30.80
2022-07-25T17:42:01.729Z,31.80
2022-07-25T17:44:28.684Z,33.00
2022-07-25T17:46:56.153Z,34.10
2022-07-25T17:49:23.182Z,35.30
2022-07-25T17:51:50.227Z,34.80
2022-07-25T17:54:17.700Z,34.90
2022-07-25T17:56:45.517Z,35.20
2022-07-25T17:59:13.719Z,35.80
2022-07-25T18:01:41.030Z,36.40
2022-07-25T18:04:08.638Z,36.00
2022-07-25T18:06:36.025Z,36.70
2022-07-25T18:09:03.226Z,36.30
2022-07-25T18:11:30.277Z,37.40
2022-07-25T18:13:59.373Z,37.90
2022-07-25T18:16:26.684Z,37.10
2022-07-25T18:18:53.836Z,37.50
2022-07-25T18:21:20.832Z,37.80
2022-07-25T18:23:47.748Z,38.40
2022-07-25T18:26:14.891Z,38.50
2022-07-25T18:28:41.902Z,39.30
2022-07-25T18:31:09.979Z,39.20
2022-07-25T18:33:37.256Z,39.50
2022-07-25T18:36:07.639Z,39.90
2022-07-25T18:38:36.148Z,40.50
2022-07-25T18:41:27.406Z,40.20
2022-07-25T18:43:52.180Z,40.70
2022-07-25T18:46:20.076Z,41.00
2022-07-25T18:48:47.759Z,40.90
2022-07-25T18:51:15.038Z,41.50
2022-07-25T18:53:45.985Z,41.20
2022-07-25T18:56:15.056Z,41.80
2022-07-25T18:58:42.099Z,41.60
2022-07-25T19:01:09.692Z,41.80
2022-07-25T19:03:37.626Z,42.50
2022-07-25T19:06:05.273Z,42.20
2022-07-25T19:08:33.103Z,42.40
2022-07-25T19:11:00.371Z,42.60
2022-07-25T19:13:48.259Z,42.90
2022-07-25T19:16:14.477Z,43.10
2022-07-25T19:18:42.058Z,43.60
2022-07-25T19:21:09.004Z,43.30
2022-07-25T19:23:35.992Z,44.00
2022-07-25T19:26:04.031Z,43.20
2022-07-25T19:28:31.035Z,43.40
2022-07-25T19:30:58.165Z,44.60
2022-07-25T19:33:25.544Z,45.00
2022-07-25T19:36:01.885Z,44.50
2022-07-25T19:38:28.846Z,45.00
2022-07-25T19:40:55.793Z,45.00
2022-07-25T19:43:22.774Z,44.20
2022-07-25T19:45:49.854Z,44.50
2022-07-25T19:48:17.388Z,45.20
2022-07-25T19:50:45.654Z,45.80
2022-07-25T19:53:12.716Z,45.40
2022-07-25T19:55:39.661Z,44.40
2022-07-25T19:58:08.416Z,44.80
2022-07-25T20:00:35.478Z,44.90
2022-07-25T20:03:02.683Z,46.00
2022-07-25T20:05:29.726Z,46.40
2022-07-25T20:07:56.749Z,47.10
2022-07-25T20:10:24.293Z,47.40
2022-07-25T20:12:51.662Z,46.90
2022-07-25T20:15:18.721Z,47.30
2022-07-25T20:17:45.663Z,47.70
2022-07-25T20:20:12.709Z,48.10
2022-07-25T20:22:39.766Z,48.70
2022-07-25T20:25:10.772Z,48.50
2022-07-25T20:27:38.407Z,48.10
2022-07-25T20:30:08.655Z,48.30
2022-07-25T20:32:36.121Z,48.20
2022-07-25T20:35:03.791Z,48.70
2022-07-25T20:37:30.796Z,48.00
2022-07-25T20:39:58.971Z,48.40
2022-07-25T20:42:26.059Z,48.80
2022-07-25T20:44:53.083Z,48.30
2022-07-25T20:47:20.121Z,48.40
2022-07-25T20:49:47.071Z,48.60
2022-07-25T20:52:14.055Z,48.70
2022-07-25T20:54:42.894Z,49.00
2022-07-25T20:57:11.532Z,48.90
2022-07-25T20:59:38.587Z,49.60
2022-07-25T21:02:05.963Z,50.30
2022-07-25T21:04:33.032Z,49.40
2022-07-25T21:07:00.198Z,49.50
2022-07-25T21:09:30.949Z,49.40
2022-07-25T21:12:01.089Z,49.50
2022-07-25T21:14:28.496Z,49.70
2022-07-25T21:16:56.736Z,50.10
2022-07-25T21:19:24.425Z,50.50
2022-07-25T21:21:51.460Z,50.00
2022-07-25T21:24:18.521Z,50.20
2022-07-25T21:26:45.534Z,50.50
2022-07-25T21:29:12.868Z,51.10
2022-07-25T21:31:40.031Z,51.20
2022-07-25T21:34:07.077Z,51.60
2022-07-25T21:36:34.984Z,51.80
2022-07-25T21:39:02.096Z,52.80
2022-07-25T21:41:29.181Z,51.90
2022-07-25T21:43:57.292Z,52.00
2022-07-25T21:46:24.299Z,52.30
2022-07-25T21:49:10.479Z,53.00
2022-07-25T21:51:40.389Z,52.70
2022-07-25T21:54:08.408Z,52.40
2022-07-25T21:56:35.458Z,52.40
2022-07-25T21:59:02.409Z,52.40
2022-07-25T22:01:29.798Z,52.70
2022-07-25T22:03:56.980Z,52.50
2022-07-25T22:06:23.998Z,52.30
2022-07-25T22:08:51.047Z,52.90
2022-07-25T22:11:38.873Z,52.80
2022-07-25T22:14:05.234Z,52.50
2022-07-25T22:16:32.235Z,52.90
2022-07-25T22:18:59.723Z,53.00
2022-07-25T22:21:26.977Z,53.10
2022-07-25T22:23:53.886Z,53.10
2022-07-25T22:26:21.509Z,53.30
2022-07-25T22:28:48.959Z,53.50
2022-07-25T22:31:17.817Z,53.50
2022-07-25T22:33:44.927Z,53.70
2022-07-25T22:36:11.997Z,53.70
2022-07-25T22:38:38.969Z,54.00
2022-07-25T22:41:06.286Z,54.20
2022-07-25T22:43:57.223Z,54.00
2022-07-25T22:46:20.233Z,54.50
2022-07-25T22:48:47.230Z,54.70
2022-07-25T22:51:14.207Z,55.30
2022-07-25T22:53:41.181Z,54.90
2022-07-25T22:56:08.233Z,54.60
2022-07-25T22:58:35.198Z,55.50
2022-07-25T23:01:02.203Z,55.40
2022-07-25T23:03:30.591Z,55.20
2022-07-25T23:05:59.248Z,55.60
2022-07-25T23:08:26.137Z,56.40
2022-07-25T23:10:53.239Z,55.80
2022-07-25T23:13:20.288Z,56.00
2022-07-25T23:15:49.776Z,56.00
2022-07-25T23:18:19.086Z,56.10
2022-07-25T23:20:46.299Z,56.40
2022-07-25T23:23:13.679Z,56.50
2022-07-25T23:25:40.889Z,56.20
2022-07-25T23:28:07.856Z,56.50
2022-07-25T23:30:40.039Z,56.70
2022-07-25T23:33:08.332Z,56.90
2022-07-25T23:35:35.901Z,57.20
2022-07-25T23:38:03.750Z,57.00
2022-07-25T23:40:31.084Z,57.60
2022-07-25T23:42:58.117Z,57.40
2022-07-25T23:45:27.812Z,57.20
2022-07-25T23:47:56.513Z,57.60
2022-07-25T23:50:24.324Z,57.40
2022-07-25T23:52:51.656Z,57.70
2022-07-25T23:55:18.678Z,57.30
2022-07-25T23:57:45.672Z,57.10
